createdAt,value
2018-04-23T00:00:41.127Z,5.13
2018-04-23T00:03:16.426Z,5.70
2018-04-23T00:05:52.482Z,4.70
2018-04-23T00:08:27.690Z,4.70
2018-04-23T00:11:02.976Z,5.90
2018-04-23T00:13:38.072Z,4.90
2018-04-23T00:16:13.610Z,5.90
2018-04-23T00:18:48.891Z,3.67
2018-04-23T00:21:25.196Z,5.37
2018-04-23T00:24:00.707Z,5.20
2018-04-23T00:26:36.030Z,5.67
2018-04-23T00:29:11.503Z,5.30
2018-04-23T00:31:47.114Z,5.67
2018-04-23T00:34:22.175Z,4.47
2018-04-23T00:36:57.996Z,5.60
2018-04-23T00:39:33.776Z,4.07
2018-04-23T00:42:09.255Z,5.10
2018-04-23T00:44:44.051Z,4.30
2018-04-23T00:47:19.153Z,5.03
2018-04-23T00:49:54.734Z,4.43
2018-04-23T00:52:30.636Z,5.77
2018-04-23T00:55:06.654Z,4.37
2018-04-23T00:57:41.775Z,4.67
2018-04-23T01:00:16.620Z,3.90
2018-04-23T01:02:51.881Z,4.53
2018-04-23T01:05:27.096Z,4.10
2018-04-23T01:08:02.807Z,3.57
2018-04-23T01:10:37.989Z,4.00
2018-04-23T01:13:13.430Z,4.73
2018-04-23T01:15:48.268Z,3.83
2018-04-23T01:18:23.603Z,3.77
2018-04-23T01:20:59.769Z,3.57
2018-04-23T01:23:35.816Z,4.43
2018-04-23T01:26:10.874Z,4.50
2018-04-23T01:28:46.507Z,4.47
2018-04-23T01:31:22.775Z,4.60
2018-04-23T01:33:58.015Z,4.30
2018-04-23T01:36:33.051Z,3.30
2018-04-23T01:39:08.015Z,3.07
2018-04-23T01:41:43.562Z,3.93
2018-04-23T01:44:18.464Z,5.73
2018-04-23T01:46:53.288Z,4.90
2018-04-23T01:49:28.665Z,4.47
2018-04-23T01:52:03.770Z,4.93
2018-04-23T01:54:38.911Z,4.63
2018-04-23T01:57:14.089Z,4.30
2018-04-23T01:59:49.122Z,3.90
2018-04-23T02:02:25.962Z,4.30
2018-04-23T02:05:00.691Z,4.37
2018-04-23T02:07:35.930Z,4.90
2018-04-23T02:10:11.284Z,4.10
2018-04-23T02:12:47.064Z,4.17
2018-04-23T02:15:22.216Z,4.70
2018-04-23T02:17:57.813Z,4.60
2018-04-23T02:20:33.357Z,4.07
2018-04-23T02:23:08.804Z,4.20
2018-04-23T02:25:44.242Z,4.33
2018-04-23T02:28:19.589Z,4.33
2018-04-23T02:30:54.415Z,5.20
2018-04-23T02:33:29.655Z,4.20
2018-04-23T02:36:05.102Z,4.73
2018-04-23T02:38:40.146Z,4.90
2018-04-23T02:41:15.373Z,5.20
2018-04-23T02:43:50.614Z,5.13
2018-04-23T02:46:25.660Z,3.83
2018-04-23T02:49:01.096Z,4.73
2018-04-23T02:51:36.334Z,4.60
2018-04-23T02:54:11.580Z,5.10
2018-04-23T02:56:46.618Z,3.87
2018-04-23T02:59:22.567Z,4.97
2018-04-23T03:01:58.277Z,3.60
2018-04-23T03:04:33.973Z,5.20
2018-04-23T03:07:09.208Z,5.40
2018-04-23T03:09:44.651Z,5.37
2018-04-23T03:12:19.670Z,5.23
2018-04-23T03:14:54.723Z,5.10
2018-04-23T03:17:30.372Z,5.27
2018-04-23T03:20:06.127Z,4.60
2018-04-23T03:22:42.599Z,5.17
2018-04-23T03:25:18.657Z,5.60
2018-04-23T03:27:54.097Z,4.30
2018-04-23T03:30:29.336Z,5.77
2018-04-23T03:33:04.783Z,4.93
2018-04-23T03:35:40.436Z,5.03
2018-04-23T03:38:16.287Z,4.60
2018-04-23T03:40:51.535Z,4.73
2018-04-23T03:43:26.560Z,5.07
2018-04-23T03:46:02.004Z,4.17
2018-04-23T03:48:38.477Z,5.37
2018-04-23T03:51:13.825Z,4.50
2018-04-23T03:53:48.861Z,5.90
2018-04-23T03:56:24.097Z,4.27
2018-04-23T03:58:59.747Z,4.10
2018-04-23T04:01:35.348Z,4.87
2018-04-23T04:04:11.256Z,4.40
2018-04-23T04:06:46.996Z,4.80
2018-04-23T04:09:22.464Z,4.73
2018-04-23T04:11:57.791Z,4.50
2018-04-23T04:14:44.706Z,4.20
2018-04-23T04:17:20.553Z,5.10
2018-04-23T04:19:55.526Z,4.87
2018-04-23T04:22:30.934Z,4.63
2018-04-23T04:25:05.658Z,4.13
2018-04-23T04:27:41.613Z,4.73
2018-04-23T04:30:17.265Z,4.50
2018-04-23T04:32:52.326Z,4.37
2018-04-23T04:35:27.308Z,3.80
2018-04-23T04:38:02.780Z,4.77
2018-04-23T04:40:38.021Z,4.30
2018-04-23T04:43:13.465Z,4.47
2018-04-23T04:45:48.396Z,5.57
2018-04-23T04:48:23.439Z,4.13
2018-04-23T04:50:58.470Z,4.50
2018-04-23T04:53:33.917Z,5.47
2018-04-23T04:56:09.253Z,4.37
2018-04-23T04:58:44.703Z,3.60
2018-04-23T05:01:20.245Z,3.50
2018-04-23T05:03:56.548Z,4.20
2018-04-23T05:06:32.477Z,4.10
2018-04-23T05:09:07.716Z,3.97
2018-04-23T05:11:43.008Z,3.40
2018-04-23T05:14:19.008Z,4.73
2018-04-23T05:16:54.861Z,4.70
2018-04-23T05:19:31.179Z,5.53
2018-04-23T05:22:06.772Z,4.10
2018-04-23T05:24:41.742Z,4.03
2018-04-23T05:27:17.051Z,4.10
2018-04-23T05:29:52.421Z,4.43
2018-04-23T05:32:27.632Z,4.90
2018-04-23T05:35:02.870Z,4.80
2018-04-23T05:37:37.951Z,5.57
2018-04-23T05:40:13.149Z,6.00
2018-04-23T05:42:48.287Z,6.20
2018-04-23T05:45:23.321Z,5.40
2018-04-23T05:47:58.194Z,6.07
2018-04-23T05:50:33.289Z,5.13
2018-04-23T05:53:09.145Z,5.63
2018-04-23T05:55:44.383Z,5.70
2018-04-23T05:58:19.765Z,5.70
2018-04-23T06:00:54.961Z,5.63
2018-04-23T06:03:31.375Z,5.77
2018-04-23T06:06:07.721Z,5.50
2018-04-23T06:08:43.159Z,5.63
2018-04-23T06:11:18.377Z,5.70
2018-04-23T06:13:53.207Z,8.27
2018-04-23T06:16:28.501Z,5.80
2018-04-23T06:19:03.387Z,7.40
2018-04-23T06:21:38.623Z,6.60
2018-04-23T06:24:14.028Z,5.97
2018-04-23T06:26:49.366Z,5.47
2018-04-23T06:29:24.485Z,7.27
2018-04-23T06:31:59.793Z,5.07
2018-04-23T06:34:34.620Z,5.70
2018-04-23T06:37:09.546Z,7.67
2018-04-23T06:39:44.794Z,6.67
2018-04-23T06:42:19.825Z,6.30
2018-04-23T06:44:55.063Z,6.60
2018-04-23T06:47:30.302Z,7.40
2018-04-23T06:50:05.337Z,7.47
2018-04-23T06:52:40.838Z,6.40
2018-04-23T06:55:16.642Z,7.27
2018-04-23T06:57:51.978Z,8.03
2018-04-23T07:00:27.937Z,7.83
2018-04-23T07:03:03.999Z,6.77
2018-04-23T07:05:39.644Z,7.30
2018-04-23T07:08:15.089Z,5.13
2018-04-23T07:10:50.127Z,6.40
2018-04-23T07:13:25.365Z,7.50
2018-04-23T07:16:00.194Z,8.70
2018-04-23T07:18:35.231Z,8.37
2018-04-23T07:21:10.217Z,6.20
2018-04-23T07:23:45.713Z,7.23
2018-04-23T07:26:20.539Z,7.17
2018-04-23T07:28:55.782Z,6.00
2018-04-23T07:31:30.814Z,6.83
2018-04-23T07:34:05.646Z,6.07
2018-04-23T07:36:40.579Z,5.90
2018-04-23T07:39:15.827Z,6.23
2018-04-23T07:41:50.649Z,5.53
2018-04-23T07:44:25.888Z,5.30
2018-04-23T07:47:01.286Z,6.30
2018-04-23T07:49:37.397Z,5.93
2018-04-23T07:52:12.840Z,5.40
2018-04-23T07:54:48.216Z,4.70
2018-04-23T07:57:23.522Z,5.33
2018-04-23T07:59:59.757Z,6.20
2018-04-23T08:02:34.979Z,5.07
2018-04-23T08:05:11.085Z,4.97
2018-04-23T08:07:46.119Z,4.80
2018-04-23T08:10:21.153Z,4.70
2018-04-23T08:12:55.985Z,5.53
2018-04-23T08:15:30.957Z,4.27
2018-04-23T08:18:06.472Z,3.73
2018-04-23T08:20:41.306Z,5.57
2018-04-23T08:23:16.547Z,3.60
2018-04-23T08:25:51.774Z,4.20
2018-04-23T08:28:26.830Z,3.90
2018-04-23T08:31:01.845Z,4.37
2018-04-23T08:33:36.879Z,4.40
2018-04-23T08:36:12.324Z,4.60
2018-04-23T08:38:47.564Z,4.43
2018-04-23T08:41:22.810Z,4.93
2018-04-23T08:43:58.048Z,4.20
2018-04-23T08:46:34.929Z,3.87
2018-04-23T08:49:10.779Z,5.00
2018-04-23T08:51:46.632Z,3.93
2018-04-23T08:54:21.667Z,4.13
2018-04-23T08:56:57.053Z,3.70
2018-04-23T08:59:32.148Z,3.60
2018-04-23T09:02:07.595Z,3.13
2018-04-23T09:04:42.840Z,3.70
2018-04-23T09:07:18.078Z,3.30
2018-04-23T09:09:53.108Z,4.60
2018-04-23T09:12:28.248Z,4.17
2018-04-23T09:15:04.306Z,3.80
2018-04-23T09:17:39.342Z,3.37
2018-04-23T09:20:14.528Z,4.30
2018-04-23T09:22:49.558Z,4.73
2018-04-23T09:25:24.652Z,6.23
2018-04-23T09:27:59.835Z,7.67
2018-04-23T09:30:35.337Z,8.57
2018-04-23T09:33:10.984Z,8.60
2018-04-23T09:35:46.442Z,9.53
2018-04-23T09:38:22.019Z,8.30
2018-04-23T09:40:57.931Z,7.10
2018-04-23T09:43:33.586Z,6.20
2018-04-23T09:46:08.615Z,6.10
2018-04-23T09:48:43.859Z,5.13
2018-04-23T09:51:19.306Z,4.43
2018-04-23T09:53:54.691Z,5.33
2018-04-23T09:56:29.787Z,3.50
2018-04-23T09:59:05.023Z,3.87
2018-04-23T10:01:45.818Z,4.67
2018-04-23T10:04:21.440Z,4.10
2018-04-23T10:06:56.413Z,4.23
2018-04-23T10:09:32.272Z,4.60
2018-04-23T10:12:08.002Z,4.57
2018-04-23T10:14:43.834Z,4.20
2018-04-23T10:17:18.664Z,5.43
2018-04-23T10:19:53.676Z,5.73
2018-04-23T10:22:29.352Z,5.70
2018-04-23T10:25:04.935Z,5.43
2018-04-23T10:27:39.624Z,5.47
2018-04-23T10:30:15.775Z,4.17
2018-04-23T10:32:51.333Z,4.50
2018-04-23T10:35:28.010Z,4.87
2018-04-23T10:38:03.206Z,4.83
2018-04-23T10:40:38.690Z,4.47
2018-04-23T10:43:13.727Z,5.00
2018-04-23T10:45:49.176Z,4.40
2018-04-23T10:48:24.411Z,5.60
2018-04-23T10:50:59.657Z,6.30
2018-04-23T10:53:35.721Z,5.20
2018-04-23T10:56:11.982Z,5.47
2018-04-23T10:58:47.010Z,5.40
2018-04-23T11:01:22.056Z,4.47
2018-04-23T11:03:57.085Z,5.50
2018-04-23T11:06:32.536Z,5.23
2018-04-23T11:09:08.185Z,4.13
2018-04-23T11:11:43.621Z,4.23
2018-04-23T11:14:18.862Z,4.30
2018-04-23T11:16:54.097Z,6.10
2018-04-23T11:19:29.342Z,5.00
2018-04-23T11:22:04.986Z,20.23
2018-04-23T11:24:40.649Z,6.50
2018-04-23T11:27:16.286Z,4.23
2018-04-23T11:29:51.222Z,3.77
2018-04-23T11:32:26.679Z,5.33
2018-04-23T11:35:02.063Z,4.90
2018-04-23T11:37:37.658Z,4.70
2018-04-23T11:40:12.998Z,5.80
2018-04-23T11:42:48.047Z,5.70
2018-04-23T11:45:23.171Z,4.90
2018-04-23T11:47:58.619Z,4.03
2018-04-23T11:50:33.849Z,4.40
2018-04-23T11:53:09.364Z,5.20
2018-04-23T11:55:45.183Z,5.10
2018-04-23T11:58:20.413Z,5.00
2018-04-23T12:00:56.282Z,5.57
2018-04-23T12:03:31.563Z,4.47
2018-04-23T12:06:06.734Z,3.70
2018-04-23T12:08:42.806Z,4.33
2018-04-23T12:11:18.448Z,3.90
2018-04-23T12:13:53.664Z,4.80
2018-04-23T12:16:28.922Z,4.30
2018-04-23T12:19:04.383Z,4.00
2018-04-23T12:21:40.616Z,5.40
2018-04-23T12:24:17.516Z,3.80
2018-04-23T12:26:52.580Z,4.33
2018-04-23T12:29:29.042Z,5.00
2018-04-23T12:32:05.003Z,3.80
2018-04-23T12:34:40.930Z,4.40
2018-04-23T12:37:17.238Z,5.33
2018-04-23T12:39:53.321Z,3.97
2018-04-23T12:42:29.107Z,3.77
2018-04-23T12:45:04.912Z,4.00
2018-04-23T12:47:40.877Z,3.97
2018-04-23T12:50:16.559Z,4.10
2018-04-23T12:52:51.805Z,3.70
2018-04-23T12:55:26.850Z,4.40
2018-04-23T12:58:02.895Z,3.80
2018-04-23T13:00:38.953Z,3.70
2018-04-23T13:03:15.015Z,3.40
2018-04-23T13:05:50.456Z,4.63
2018-04-23T13:08:26.123Z,3.77
2018-04-23T13:11:02.166Z,4.13
2018-04-23T13:13:37.368Z,3.63
2018-04-23T13:16:12.620Z,3.73
2018-04-23T13:18:48.922Z,4.47
2018-04-23T13:21:25.158Z,4.60
2018-04-23T13:24:00.625Z,4.97
2018-04-23T13:26:35.936Z,4.90
2018-04-23T13:29:11.301Z,4.13
2018-04-23T13:31:47.361Z,4.20
2018-04-23T13:34:23.273Z,4.13
2018-04-23T13:36:59.216Z,2.90
2018-04-23T13:39:34.928Z,3.83
2018-04-23T13:42:10.680Z,4.20
2018-04-23T13:44:45.922Z,5.50
2018-04-23T13:47:22.801Z,4.00
2018-04-23T13:49:58.445Z,4.40
2018-04-23T13:52:33.687Z,3.97
2018-04-23T13:55:08.656Z,3.20
2018-04-23T13:57:43.572Z,3.80
2018-04-23T14:00:18.755Z,3.30
2018-04-23T14:02:53.825Z,3.80
2018-04-23T14:05:28.858Z,4.80
2018-04-23T14:08:04.103Z,4.23
2018-04-23T14:10:39.282Z,4.70
2018-04-23T14:13:20.928Z,4.27
2018-04-23T14:15:56.577Z,3.27
2018-04-23T14:18:31.408Z,3.57
2018-04-23T14:21:06.748Z,3.90
2018-04-23T14:23:41.989Z,4.67
2018-04-23T14:26:18.092Z,3.60
2018-04-23T14:28:53.701Z,5.57
2018-04-23T14:31:28.736Z,3.63
2018-04-23T14:34:03.777Z,4.07
2018-04-23T14:36:39.419Z,3.50
2018-04-23T14:39:14.454Z,3.17
2018-04-23T14:41:50.308Z,3.03
2018-04-23T14:44:25.958Z,4.33
2018-04-23T14:47:01.613Z,3.40
2018-04-23T14:49:36.980Z,3.80
2018-04-23T14:52:12.292Z,3.53
2018-04-23T14:54:47.542Z,3.93
2018-04-23T14:57:22.774Z,3.20
2018-04-23T14:59:58.321Z,4.17
2018-04-23T15:02:33.358Z,4.20
2018-04-23T15:05:08.798Z,3.70
2018-04-23T15:07:43.835Z,3.73
2018-04-23T15:10:24.787Z,3.30
2018-04-23T15:12:59.637Z,3.40
2018-04-23T15:15:34.929Z,3.10
2018-04-23T15:18:10.533Z,3.63
2018-04-23T15:20:45.457Z,4.47
2018-04-23T15:23:20.809Z,4.83
2018-04-23T15:25:56.884Z,4.27
2018-04-23T15:28:33.123Z,4.10
2018-04-23T15:31:08.672Z,4.33
2018-04-23T15:33:43.706Z,4.10
2018-04-23T15:36:18.947Z,3.90
2018-04-23T15:38:54.800Z,3.90
2018-04-23T15:41:31.436Z,5.00
2018-04-23T15:44:07.327Z,3.70
2018-04-23T15:46:42.772Z,4.70
2018-04-23T15:49:18.221Z,3.83
2018-04-23T15:51:53.870Z,3.43
2018-04-23T15:54:29.106Z,3.90
2018-04-23T15:57:04.899Z,2.80
2018-04-23T15:59:39.794Z,2.30
2018-04-23T16:02:15.033Z,3.17
2018-04-23T16:04:50.066Z,3.43
2018-04-23T16:07:26.252Z,4.37
2018-04-23T16:10:01.582Z,4.00
2018-04-23T16:12:37.393Z,4.20
2018-04-23T16:15:12.877Z,3.60
2018-04-23T16:17:48.838Z,5.10
2018-04-23T16:20:25.745Z,4.20
2018-04-23T16:23:00.651Z,3.53
2018-04-23T16:25:35.718Z,3.70
2018-04-23T16:28:12.966Z,4.00
2018-04-23T16:30:47.934Z,3.63
2018-04-23T16:33:23.444Z,3.90
2018-04-23T16:35:59.409Z,4.77
2018-04-23T16:38:34.431Z,4.07
2018-04-23T16:41:10.595Z,4.67
2018-04-23T16:43:46.599Z,4.90
2018-04-23T16:46:22.611Z,4.40
2018-04-23T16:48:57.748Z,4.53
2018-04-23T16:51:33.372Z,4.70
2018-04-23T16:54:08.534Z,5.40
2018-04-23T16:56:44.120Z,5.47
2018-04-23T16:59:20.040Z,5.30
2018-04-23T17:01:54.869Z,4.37
2018-04-23T17:04:30.222Z,8.90
2018-04-23T17:07:06.689Z,5.07
2018-04-23T17:09:42.637Z,4.63
2018-04-23T17:12:17.785Z,4.30
2018-04-23T17:14:53.203Z,6.63
2018-04-23T17:17:28.260Z,4.90
2018-04-23T17:20:03.811Z,4.43
2018-04-23T17:22:38.836Z,5.00
2018-04-23T17:25:15.714Z,4.50
2018-04-23T17:27:50.791Z,4.90
2018-04-23T17:30:26.299Z,5.10
2018-04-23T17:33:03.909Z,4.83
2018-04-23T17:35:39.131Z,5.77
2018-04-23T17:38:15.805Z,4.83
2018-04-23T17:40:50.641Z,5.17
2018-04-23T17:43:25.883Z,5.50
2018-04-23T17:46:00.912Z,4.97
2018-04-23T17:48:36.158Z,4.30
2018-04-23T17:51:12.645Z,5.20
2018-04-23T17:53:47.797Z,5.40
2018-04-23T17:56:23.409Z,4.17
2018-04-23T17:58:58.138Z,4.77
2018-04-23T18:01:33.385Z,5.90
2018-04-23T18:04:08.659Z,5.43
2018-04-23T18:06:43.861Z,4.60
2018-04-23T18:09:18.690Z,4.27
2018-04-23T18:11:54.275Z,3.80
2018-04-23T18:14:29.371Z,4.10
2018-04-23T18:17:04.406Z,5.60
2018-04-23T18:19:39.860Z,5.07
2018-04-23T18:22:15.295Z,5.37
2018-04-23T18:24:50.961Z,4.37
2018-04-23T18:27:25.999Z,4.30
2018-04-23T18:30:02.041Z,4.80
2018-04-23T18:32:37.499Z,5.63
2018-04-23T18:35:12.959Z,4.97
2018-04-23T18:37:47.907Z,7.07
2018-04-23T18:40:23.619Z,4.40
2018-04-23T18:43:00.096Z,5.97
2018-04-23T18:45:35.450Z,4.63
2018-04-23T18:48:11.086Z,4.83
2018-04-23T18:50:46.134Z,5.10
2018-04-23T18:53:21.294Z,5.27
2018-04-23T18:55:56.282Z,4.43
2018-04-23T18:58:31.462Z,5.70
2018-04-23T19:01:06.559Z,5.90
2018-04-23T19:03:42.412Z,5.13
2018-04-23T19:06:18.676Z,5.50
2018-04-23T19:08:55.351Z,5.20
2018-04-23T19:11:30.111Z,6.50
2018-04-23T19:14:06.239Z,8.17
2018-04-23T19:16:41.627Z,5.93
2018-04-23T19:19:17.848Z,6.70
2018-04-23T19:21:52.731Z,7.87
2018-04-23T19:24:28.121Z,5.83
2018-04-23T19:27:05.408Z,12.63
2018-04-23T19:29:41.067Z,8.37
2018-04-23T19:32:16.910Z,8.70
2018-04-23T19:34:52.358Z,6.67
2018-04-23T19:37:27.390Z,6.40
2018-04-23T19:40:02.584Z,7.40
2018-04-23T19:42:38.085Z,7.47
2018-04-23T19:45:13.326Z,6.03
2018-04-23T19:47:48.352Z,6.70
2018-04-23T19:50:24.757Z,5.27
2018-04-23T19:52:59.415Z,6.20
2018-04-23T19:55:34.481Z,6.63
2018-04-23T19:58:09.721Z,6.27
2018-04-23T20:00:44.487Z,5.60
2018-04-23T20:03:19.249Z,5.20
2018-04-23T20:05:54.152Z,5.20
2018-04-23T20:08:29.005Z,6.40
2018-04-23T20:11:04.286Z,6.43
2018-04-23T20:13:39.742Z,6.10
2018-04-23T20:16:14.760Z,6.85
2018-04-23T20:18:50.213Z,7.40
2018-04-23T20:21:25.532Z,6.50
2018-04-23T20:24:00.274Z,6.10
2018-04-23T20:26:35.536Z,6.23
2018-04-23T20:29:11.336Z,7.73
2018-04-23T20:31:46.866Z,15.97
2018-04-23T20:34:22.267Z,7.37
2018-04-23T20:36:58.906Z,9.17
2018-04-23T20:39:34.386Z,8.33
2018-04-23T20:42:09.442Z,8.90
2018-04-23T20:44:44.896Z,7.40
2018-04-23T20:47:21.078Z,7.40
2018-04-23T20:49:56.373Z,8.37
2018-04-23T20:52:31.612Z,6.83
2018-04-23T20:55:07.061Z,9.00
2018-04-23T20:57:43.452Z,8.73
2018-04-23T21:00:18.296Z,8.70
2018-04-23T21:02:54.713Z,9.57
2018-04-23T21:05:31.209Z,9.40
2018-04-23T21:08:07.068Z,8.40
2018-04-23T21:10:43.385Z,9.90
2018-04-23T21:13:19.362Z,9.40
2018-04-23T21:15:54.806Z,8.97
2018-04-23T21:18:31.500Z,9.90
2018-04-23T21:21:06.956Z,10.63
2018-04-23T21:23:42.479Z,9.20
2018-04-23T21:26:17.844Z,9.90
2018-04-23T21:28:53.109Z,9.97
2018-04-23T21:31:29.007Z,8.90
2018-04-23T21:34:06.042Z,8.18
2018-04-23T21:36:41.900Z,10.60
2018-04-23T21:39:16.680Z,9.40
2018-04-23T21:41:52.131Z,10.00
2018-04-23T21:44:27.853Z,12.53
2018-04-23T21:47:04.062Z,11.07
2018-04-23T21:49:39.486Z,11.63
2018-04-23T21:52:15.367Z,10.30
2018-04-23T21:54:53.273Z,8.50
2018-04-23T21:57:28.622Z,7.57
2018-04-23T22:00:04.926Z,10.13
2018-04-23T22:02:40.274Z,9.67
2018-04-23T22:05:15.187Z,9.60
2018-04-23T22:07:50.659Z,8.40
2018-04-23T22:10:25.984Z,6.93
2018-04-23T22:13:01.143Z,6.67
2018-04-23T22:15:37.204Z,5.43
2018-04-23T22:18:12.725Z,5.20
2018-04-23T22:20:48.917Z,4.73
2018-04-23T22:23:24.666Z,4.80
2018-04-23T22:26:00.098Z,4.90
2018-04-23T22:28:36.399Z,4.00
2018-04-23T22:31:13.492Z,3.57
2018-04-23T22:33:49.520Z,6.43
2018-04-23T22:36:25.105Z,5.40
2018-04-23T22:39:00.611Z,4.47
2018-04-23T22:41:36.671Z,4.60
2018-04-23T22:44:11.654Z,4.97
2018-04-23T22:46:46.739Z,5.40
2018-04-23T22:49:21.928Z,4.00
2018-04-23T22:51:57.579Z,4.07
2018-04-23T22:54:32.453Z,3.40
2018-04-23T22:57:09.237Z,4.43
2018-04-23T22:59:44.470Z,4.53
2018-04-23T23:02:19.712Z,4.20
2018-04-23T23:04:55.502Z,4.33
2018-04-23T23:07:30.888Z,4.50
2018-04-23T23:10:06.187Z,4.40
2018-04-23T23:12:41.705Z,6.00
2018-04-23T23:15:17.344Z,6.87
2018-04-23T23:17:53.208Z,6.83
2018-04-23T23:20:28.648Z,6.93
2018-04-23T23:23:04.529Z,9.20
2018-04-23T23:25:40.352Z,8.30
2018-04-23T23:28:16.828Z,8.47
2018-04-23T23:30:51.653Z,8.70
2018-04-23T23:33:26.685Z,8.40
2018-04-23T23:36:01.927Z,9.50
2018-04-23T23:38:36.860Z,8.67
2018-04-23T23:41:12.310Z,8.77
2018-04-23T23:43:47.961Z,8.07
2018-04-23T23:46:23.402Z,7.10
2018-04-23T23:48:58.844Z,9.80
2018-04-23T23:51:34.017Z,8.33
2018-04-23T23:54:09.326Z,8.90
2018-04-23T23:56:44.672Z,9.17
2018-04-23T23:59:19.956Z,8.77
